: Check out the pages added or updated for Weather Warnings, Sea Area Forecasts, Marine Warnings & Sea Crossings Forecasts.

Ireland METAR reports

 

EIDW - Dublin Airport, Ireland
Distance from station: WNW 13km
Updated: 28/06/2022 15:30
Partly cloudy
Partly cloudy
 Wind from S
Wind: S 24 km/h, Gust: 50 km/h
Temperature: 18°C
Dew Point: 11°C
Humidity: 64%
Barometer: 1004 hPa
Clouds: Partly cloudy
Visibility: 10 km
Cloud details: Few Clouds 549 m
Partly cloudy 975 m
2022/06/28 14:30 EIDW 281430Z 19013G27KT 070V230 9999 FEW018 SCT032 18/11 Q1004 NOSIG
EIME - Casement (mil), Ireland
Distance from station: WSW 26km
Updated: 28/06/2022 15:30
Few Clouds
Few Clouds
 Wind from S
Wind: S 35 km/h, Gust: 54 km/h
Temperature: 18°C
Dew Point: 12°C
Humidity: 68%
Barometer: 1004 hPa
Clouds: Few Clouds
Visibility: 10 km
Cloud details: Few Clouds 914 m
2022/06/28 14:30 EIME 281430Z 19019G29KT 9999 FEW030 18/12 Q1004
 
EGAC - Belfast Harbour, United Kingdom
Distance from station: N 140km
Updated: 28/06/2022 15:20
Clear
Clear
 Wind from S
Wind: S 33 km/h, Gust: 52 km/h
Temperature: 16°C
Dew Point: 13°C
Humidity: 83%
Barometer: 1003 hPa
Clouds: Clear
Visibility: 10 km
2022/06/28 14:20 EGAC 281420Z AUTO 18018G28KT 9999 NCD 16/13 Q1003
EGAA - Belfast/Aldergro, United Kingdom
Distance from station: N 141km
Updated: 28/06/2022 15:20
Thunderstorm
Thunderstorm
 Wind from S
Wind: S 28 km/h, Gust: 48 km/h
Temperature: 17°C
Dew Point: 13°C
Humidity: 77%
Barometer: 1002 hPa
Clouds: Thunderstorm
Visibility: 10 km
Cloud details: Few Clouds 579 m
Partly cloudy 884 m
2022/06/28 14:20 EGAA 281420Z AUTO 17015G26KT 140V200 9999 FEW019/// SCT029/// //////CB 17/13 Q1002
 
EIWF - Waterford Arpt, Ireland
Distance from station: SSW 148km
Updated: 28/06/2022 15:30
Partly cloudy
Partly cloudy
 Wind from SW
Wind: SW 33 km/h
Temperature: 16°C
Dew Point: 13°C
Humidity: 83%
Barometer: 1006 hPa
Clouds: Partly cloudy
Visibility: 10 km
Cloud details: Partly cloudy 610 m
2022/06/28 14:30 EIWF 281430Z 22018KT 190V250 9999 SCT020 16/13 Q1006
EIKN - Connaught Apt, Ireland
Distance from station: WNW 191km
Updated: 28/06/2022 15:30
Light rain, Showers, Mostly cloudy
Light rain, Showers, Mostly cloudy
 Wind from SW
Wind: SW 31 km/h
Temperature: 13°C
Dew Point: 11°C
Humidity: 88%
Barometer: 1000 hPa
Summary: Light rain, Showers
Clouds: Mostly cloudy
Visibility: 8 km
Cloud details: Few Clouds 366 m
Mostly cloudy 610 m
Mostly cloudy 1280 m
2022/06/28 14:30 EIKN 281430Z 22017KT 180V250 8000 -SHRA FEW012 BKN020CB BKN042 13/11 Q1000 NOSIG
 
EISG - Sligo Arpt, Ireland
Distance from station: WNW 195km
Updated: 28/06/2022 15:30
Mostly cloudy
Mostly cloudy
 Wind from SW
Wind: SW 30 km/h
Temperature: 14°C
Dew Point: 11°C
Humidity: 82%
Barometer: 999 hPa
Clouds: Mostly cloudy
Visibility: 8 km
Cloud details: Few Clouds 427 m
Partly cloudy 762 m
Mostly cloudy 914 m
2022/06/28 14:30 EISG 281430Z 22016KT 8000 FEW014 SCT025 BKN030 14/11 Q0999
EGAE - Eglinton/Londond, United Kingdom
Distance from station: NNW 198km
Updated: 28/06/2022 15:20
Nearby showers, Few clouds
Nearby showers, Few clouds
 Wind from SSW
Wind: SSW 31 km/h
Temperature: 18°C
Dew Point: 12°C
Humidity: 68%
Barometer: 1000 hPa
Summary: Nearby Showers
Clouds: Few Clouds
Visibility: 10 km
Cloud details: Few Clouds 549 m
2022/06/28 14:20 EGAE 281420Z 20017KT 9999 VCSH FEW018 18/12 Q1000
 
EINN - Shannon Airport, Ireland
Distance from station: WSW 204km
Updated: 28/06/2022 15:30
Mostly cloudy
Mostly cloudy
 Wind from SW
Wind: SW 28 km/h
Temperature: 17°C
Dew Point: 11°C
Humidity: 68%
Barometer: 1003 hPa
Clouds: Mostly cloudy
Visibility: 10 km
Cloud details: Few Clouds 701 m
Mostly cloudy 1219 m
2022/06/28 14:30 EINN 281430Z 23015KT 9999 FEW023 BKN040 17/11 Q1003 NOSIG
EICK - Cork Arpt/Corcai, Ireland
Distance from station: SW 234km
Updated: 28/06/2022 15:30
Mostly cloudy
Mostly cloudy
 Wind from SSW
Wind: SSW 31 km/h
Temperature: 15°C
Dew Point: 10°C
Humidity: 72%
Barometer: 1005 hPa
Clouds: Mostly cloudy
Visibility: 10 km
Cloud details: Mostly cloudy 610 m
2022/06/28 14:30 EICK 281430Z 20017KT 9999 BKN020 15/10 Q1005 NOSIG